Pontyberem, United Kingdom
Current Conditions -  °F | °C
As of 7:50 PM on Tuesday 21 Oct 2014 (Local Time) from EGOP Reporting Station
Scattered Clouds Scattered Clouds  
Wind Chill: 52°   Ceiling: Unl
Heat Index: 52°   Visibility: 6mi
Dew Point: 41°   Wind: 23mph
Humidity: 67%   Direction: 300°WNW
Pressure: 30.18"   Gusts: NA
Location:  51.78°N, 4.17°W
Report Text: EGOP 211850Z AUTO 30020KT 9999 // SCT050/// 11/05 Q1022
Loading
Personal Weather Stations






























Interactive Weather Map
Tropical Storm Tracking
New forecast layout! Learn more

10-Day Weather Forecast

Advertisements
Track Severe Weather on mobile